createdAt,value
2017-08-23T00:00:05.184Z,92.70
2017-08-23T00:02:32.723Z,92.80
2017-08-23T00:05:00.240Z,92.70
2017-08-23T00:07:28.687Z,93.00
2017-08-23T00:09:56.191Z,93.30
2017-08-23T00:12:24.514Z,93.60
2017-08-23T00:14:52.071Z,93.50
2017-08-23T00:17:19.587Z,93.40
2017-08-23T00:19:48.882Z,93.30
2017-08-23T00:22:16.447Z,93.40
2017-08-23T00:24:44.018Z,93.40
2017-08-23T00:27:13.216Z,93.70
2017-08-23T00:29:40.776Z,93.70
2017-08-23T00:32:08.331Z,93.90
2017-08-23T00:34:35.888Z,94.10
2017-08-23T00:37:04.202Z,93.90
2017-08-23T00:39:36.369Z,93.90
2017-08-23T00:42:03.873Z,93.90
2017-08-23T00:44:31.605Z,93.80
2017-08-23T00:46:59.116Z,93.90
2017-08-23T00:49:26.783Z,94.00
2017-08-23T00:51:55.035Z,94.10
2017-08-23T00:54:22.565Z,94.20
2017-08-23T00:56:50.118Z,94.40
2017-08-23T00:59:17.632Z,94.30
2017-08-23T01:01:46.832Z,94.20
2017-08-23T01:04:14.347Z,94.20
2017-08-23T01:06:41.880Z,94.10
2017-08-23T01:09:09.827Z,94.00
2017-08-23T01:11:37.342Z,93.90
2017-08-23T01:14:12.764Z,93.80
2017-08-23T01:16:41.196Z,93.90
2017-08-23T01:19:09.159Z,93.90
2017-08-23T01:21:36.669Z,93.60
2017-08-23T01:24:04.205Z,94.00
2017-08-23T01:26:31.711Z,94.20
2017-08-23T01:28:59.222Z,94.30
2017-08-23T01:31:27.528Z,94.80
2017-08-23T01:33:55.091Z,94.80
2017-08-23T01:36:22.599Z,94.60
2017-08-23T01:38:50.159Z,94.50
2017-08-23T01:41:17.680Z,94.50
2017-08-23T01:43:45.195Z,94.50
2017-08-23T01:46:18.739Z,94.50
2017-08-23T01:48:46.259Z,94.70
2017-08-23T01:51:14.433Z,94.50
2017-08-23T01:53:41.938Z,94.40
2017-08-23T01:56:13.066Z,94.30
2017-08-23T01:58:40.567Z,94.50
2017-08-23T02:01:08.134Z,94.40
2017-08-23T02:03:35.646Z,94.40
2017-08-23T02:06:03.648Z,94.30
2017-08-23T02:08:31.195Z,94.50
2017-08-23T02:10:58.737Z,94.70
2017-08-23T02:13:29.469Z,94.80
2017-08-23T02:15:56.975Z,94.60
2017-08-23T02:18:24.592Z,94.80
2017-08-23T02:20:52.908Z,94.80
2017-08-23T02:23:20.411Z,94.70
2017-08-23T02:25:48.011Z,94.70
2017-08-23T02:28:15.535Z,94.70
2017-08-23T02:30:43.053Z,94.50
2017-08-23T02:33:10.618Z,94.20
2017-08-23T02:35:38.128Z,94.10
2017-08-23T02:38:06.556Z,94.10
2017-08-23T02:40:34.114Z,94.10
2017-08-23T02:43:01.649Z,94.10
2017-08-23T02:45:29.219Z,94.30
2017-08-23T02:47:56.803Z,94.40
2017-08-23T02:50:26.044Z,94.50
2017-08-23T02:52:53.552Z,94.60
2017-08-23T02:55:21.124Z,94.50
2017-08-23T02:57:52.235Z,94.40
2017-08-23T03:00:20.561Z,94.50
2017-08-23T03:02:48.244Z,94.40
2017-08-23T03:05:15.759Z,94.60
2017-08-23T03:07:43.276Z,94.80
2017-08-23T03:10:11.195Z,94.80
2017-08-23T03:12:38.718Z,94.80
2017-08-23T03:15:06.236Z,94.60
2017-08-23T03:17:34.353Z,94.60
2017-08-23T03:20:02.203Z,94.60
2017-08-23T03:22:29.740Z,94.60
2017-08-23T03:24:57.358Z,94.60
2017-08-23T03:27:25.578Z,94.50
2017-08-23T03:29:53.539Z,94.80
2017-08-23T03:32:21.083Z,95.10
2017-08-23T03:34:48.640Z,95.10
2017-08-23T03:37:16.152Z,94.90
2017-08-23T03:39:43.710Z,94.80
2017-08-23T03:42:11.379Z,94.90
2017-08-23T03:44:43.339Z,94.70
2017-08-23T03:47:10.851Z,94.70
2017-08-23T03:49:38.421Z,94.70
2017-08-23T03:52:07.624Z,94.90
2017-08-23T03:54:35.132Z,94.90
2017-08-23T03:57:03.138Z,94.70
2017-08-23T03:59:34.108Z,94.80
2017-08-23T04:02:03.899Z,95.10
2017-08-23T04:04:31.407Z,95.10
2017-08-23T04:06:58.908Z,95.40
2017-08-23T04:09:26.965Z,95.10
2017-08-23T04:11:54.475Z,95.30
2017-08-23T04:14:21.975Z,95.00
2017-08-23T04:16:49.488Z,95.00
2017-08-23T04:19:16.992Z,95.10
2017-08-23T04:21:44.510Z,94.70
2017-08-23T04:24:12.043Z,94.80
2017-08-23T04:26:41.268Z,94.90
2017-08-23T04:29:08.788Z,94.80
2017-08-23T04:31:36.309Z,94.30
2017-08-23T04:34:03.835Z,93.00
2017-08-23T04:36:31.331Z,92.50
2017-08-23T04:38:59.751Z,92.30
2017-08-23T04:41:28.431Z,92.00
2017-08-23T04:43:55.956Z,91.60
2017-08-23T04:46:24.436Z,91.70
2017-08-23T04:48:51.985Z,91.80
2017-08-23T04:51:19.527Z,91.50
2017-08-23T04:53:47.801Z,91.20
2017-08-23T04:56:15.312Z,91.20
2017-08-23T04:58:43.609Z,91.50
2017-08-23T05:01:11.147Z,91.40
2017-08-23T05:03:38.659Z,91.40
2017-08-23T05:06:06.988Z,91.70
2017-08-23T05:08:34.496Z,91.70
2017-08-23T05:11:02.556Z,90.90
2017-08-23T05:13:30.863Z,91.00
2017-08-23T05:15:58.376Z,91.00
2017-08-23T05:18:26.006Z,91.20
2017-08-23T05:20:53.511Z,90.10
2017-08-23T05:23:21.964Z,90.00
2017-08-23T05:25:49.473Z,90.40
2017-08-23T05:28:17.030Z,91.10
2017-08-23T05:30:45.046Z,90.90
2017-08-23T05:33:12.558Z,90.30
2017-08-23T05:35:40.871Z,89.80
2017-08-23T05:38:08.390Z,90.30
2017-08-23T05:40:35.919Z,90.10
2017-08-23T05:43:03.427Z,90.30
2017-08-23T05:45:34.051Z,89.40
2017-08-23T05:48:02.328Z,87.90
2017-08-23T05:50:31.045Z,85.10
2017-08-23T05:52:58.591Z,85.10
2017-08-23T05:55:26.171Z,84.60
2017-08-23T05:57:53.720Z,84.20
2017-08-23T06:00:25.800Z,83.80
2017-08-23T06:02:53.313Z,84.20
2017-08-23T06:05:20.936Z,83.20
2017-08-23T06:07:48.434Z,82.80
2017-08-23T06:10:15.953Z,83.20
2017-08-23T06:12:43.458Z,82.60
2017-08-23T06:15:11.727Z,84.20
2017-08-23T06:17:39.290Z,84.20
2017-08-23T06:20:07.558Z,82.60
2017-08-23T06:22:35.112Z,82.60
2017-08-23T06:25:03.572Z,82.30
2017-08-23T06:27:31.096Z,81.90
2017-08-23T06:29:58.613Z,80.70
2017-08-23T06:32:27.015Z,81.60
2017-08-23T06:34:54.616Z,81.80
2017-08-23T06:37:22.796Z,82.70
2017-08-23T06:39:50.332Z,83.40
2017-08-23T06:42:18.269Z,81.30
2017-08-23T06:44:47.508Z,81.30
2017-08-23T06:47:18.236Z,81.30
2017-08-23T06:49:46.323Z,82.50
2017-08-23T06:52:14.695Z,81.40
2017-08-23T06:54:42.270Z,81.20
2017-08-23T06:57:09.772Z,79.90
2017-08-23T06:59:37.283Z,81.00
2017-08-23T07:02:04.797Z,79.00
2017-08-23T07:04:32.403Z,78.70
2017-08-23T07:07:00.837Z,78.40
2017-08-23T07:09:28.411Z,80.10
2017-08-23T07:11:56.695Z,77.10
2017-08-23T07:14:24.317Z,77.10
2017-08-23T07:16:58.876Z,75.60
2017-08-23T07:19:26.592Z,74.70
2017-08-23T07:21:54.162Z,75.40
2017-08-23T07:24:21.736Z,73.40
2017-08-23T07:26:49.247Z,74.40
2017-08-23T07:29:16.747Z,70.80
2017-08-23T07:31:48.337Z,68.40
2017-08-23T07:34:17.452Z,65.00
2017-08-23T07:36:45.837Z,65.10
2017-08-23T07:39:13.363Z,64.00
2017-08-23T07:41:40.916Z,62.10
2017-08-23T07:44:08.467Z,60.40
2017-08-23T07:46:40.152Z,59.10
2017-08-23T07:49:07.827Z,58.60
2017-08-23T07:51:35.331Z,61.50
2017-08-23T07:54:02.945Z,61.10
2017-08-23T07:56:30.510Z,58.10
2017-08-23T07:58:58.036Z,59.00
2017-08-23T08:01:25.576Z,57.90
2017-08-23T08:03:53.123Z,55.40
2017-08-23T08:06:20.680Z,53.30
2017-08-23T08:08:49.880Z,53.70
2017-08-23T08:11:17.392Z,53.70
2017-08-23T08:13:45.701Z,53.50
2017-08-23T08:16:14.460Z,53.00
2017-08-23T08:18:42.091Z,52.90
2017-08-23T08:21:09.612Z,52.70
2017-08-23T08:23:37.788Z,52.50
2017-08-23T08:26:05.307Z,53.40
2017-08-23T08:28:33.359Z,54.60
2017-08-23T08:31:00.879Z,52.60
2017-08-23T08:33:28.383Z,53.50
2017-08-23T08:35:55.936Z,52.00
2017-08-23T08:38:23.465Z,51.60
2017-08-23T08:40:51.912Z,51.80
2017-08-23T08:43:20.668Z,48.20
2017-08-23T08:45:48.244Z,48.10
2017-08-23T08:48:17.465Z,49.60
2017-08-23T08:50:45.000Z,49.50
2017-08-23T08:53:13.279Z,51.60
2017-08-23T08:55:41.419Z,50.90
2017-08-23T08:58:09.061Z,49.50
2017-08-23T09:00:36.571Z,47.30
2017-08-23T09:03:04.080Z,48.70
2017-08-23T09:05:31.612Z,47.60
2017-08-23T09:07:59.147Z,47.60
2017-08-23T09:10:26.704Z,48.30
2017-08-23T09:12:55.189Z,46.30
2017-08-23T09:15:22.786Z,48.80
2017-08-23T09:17:51.028Z,45.40
2017-08-23T09:20:18.568Z,44.30
2017-08-23T09:22:46.068Z,44.80
2017-08-23T09:25:14.963Z,45.10
2017-08-23T09:27:43.235Z,45.60
2017-08-23T09:30:11.676Z,45.60
2017-08-23T09:32:39.180Z,45.40
2017-08-23T09:35:06.711Z,47.20
2017-08-23T09:37:35.536Z,43.80
2017-08-23T09:40:03.636Z,43.70
2017-08-23T09:42:31.135Z,43.70
2017-08-23T09:44:58.677Z,41.40
2017-08-23T09:47:26.612Z,41.00
2017-08-23T09:49:58.147Z,42.10
2017-08-23T09:52:25.659Z,42.30
2017-08-23T09:54:53.438Z,43.80
2017-08-23T09:57:20.956Z,43.90
2017-08-23T09:59:48.531Z,42.00
2017-08-23T10:02:16.953Z,41.10
2017-08-23T10:04:44.450Z,42.80
2017-08-23T10:07:12.003Z,43.40
2017-08-23T10:09:40.456Z,41.20
2017-08-23T10:12:07.964Z,42.50
2017-08-23T10:14:35.519Z,41.20
2017-08-23T10:17:03.035Z,37.30
2017-08-23T10:19:31.376Z,37.80
2017-08-23T10:22:03.953Z,38.80
2017-08-23T10:24:31.862Z,38.80
2017-08-23T10:26:59.720Z,40.40
2017-08-23T10:29:27.248Z,43.40
2017-08-23T10:31:54.750Z,40.30
2017-08-23T10:34:26.155Z,43.10
2017-08-23T10:36:55.219Z,42.40
2017-08-23T10:39:22.715Z,39.80
2017-08-23T10:41:51.146Z,41.70
2017-08-23T10:44:18.652Z,39.60
2017-08-23T10:46:46.167Z,39.00
2017-08-23T10:49:13.663Z,38.80
2017-08-23T10:51:41.163Z,40.80
2017-08-23T10:54:08.676Z,39.30
2017-08-23T10:56:40.023Z,39.70
2017-08-23T10:59:07.557Z,38.00
2017-08-23T11:01:35.859Z,39.00
2017-08-23T11:04:03.376Z,39.30
2017-08-23T11:06:34.154Z,41.30
2017-08-23T11:09:01.667Z,39.80
2017-08-23T11:11:29.975Z,38.30
2017-08-23T11:13:57.472Z,38.60
2017-08-23T11:16:24.996Z,40.50
2017-08-23T11:18:52.547Z,37.20
2017-08-23T11:21:25.373Z,38.90
2017-08-23T11:23:52.880Z,38.80
2017-08-23T11:26:21.155Z,37.50
2017-08-23T11:28:50.366Z,38.90
2017-08-23T11:31:17.910Z,39.00
2017-08-23T11:33:45.423Z,39.60
2017-08-23T11:36:12.940Z,38.50
2017-08-23T11:38:41.227Z,39.30
2017-08-23T11:41:08.727Z,39.20
2017-08-23T11:43:36.223Z,37.40
2017-08-23T11:46:04.178Z,38.70
2017-08-23T11:48:31.696Z,37.70
2017-08-23T11:50:59.203Z,41.10
2017-08-23T11:53:26.737Z,39.70
2017-08-23T11:55:54.279Z,39.40
2017-08-23T11:58:22.774Z,37.50
2017-08-23T12:00:51.528Z,38.40
2017-08-23T12:03:19.073Z,40.50
2017-08-23T12:05:47.346Z,39.30
2017-08-23T12:08:15.620Z,37.40
2017-08-23T12:10:43.128Z,37.50
2017-08-23T12:13:10.639Z,37.90
2017-08-23T12:15:38.912Z,38.00
2017-08-23T12:18:07.478Z,37.20
2017-08-23T12:20:35.611Z,36.10
2017-08-23T12:23:03.896Z,35.60
2017-08-23T12:25:35.936Z,35.60
2017-08-23T12:28:04.207Z,33.00
2017-08-23T12:30:32.503Z,33.00
2017-08-23T12:33:00.019Z,36.60
2017-08-23T12:35:27.595Z,36.20
2017-08-23T12:37:56.808Z,35.40
2017-08-23T12:40:24.341Z,35.40
2017-08-23T12:42:51.841Z,38.70
2017-08-23T12:45:19.387Z,34.90
2017-08-23T12:47:46.888Z,35.00
2017-08-23T12:50:14.397Z,36.10
2017-08-23T12:52:41.895Z,35.00
2017-08-23T12:55:10.001Z,36.80
2017-08-23T12:57:38.013Z,35.10
2017-08-23T13:00:05.523Z,34.50
2017-08-23T13:02:33.364Z,35.50
2017-08-23T13:05:00.885Z,38.10
2017-08-23T13:07:28.960Z,36.90
2017-08-23T13:09:56.807Z,36.60
2017-08-23T13:12:24.325Z,35.30
2017-08-23T13:14:52.657Z,36.20
2017-08-23T13:17:20.168Z,38.00
2017-08-23T13:19:49.123Z,36.30
2017-08-23T13:22:16.975Z,37.00
2017-08-23T13:24:45.605Z,37.50
2017-08-23T13:27:13.164Z,36.60
2017-08-23T13:32:13.140Z,37.70
2017-08-23T13:34:40.679Z,39.30
2017-08-23T13:37:08.212Z,37.60
2017-08-23T13:39:36.700Z,40.40
2017-08-23T13:42:04.208Z,37.80
2017-08-23T13:44:33.212Z,38.20
2017-08-23T13:47:00.716Z,38.60
2017-08-23T13:49:30.923Z,38.40
2017-08-23T13:51:58.468Z,36.90
2017-08-23T13:54:26.743Z,38.00
2017-08-23T13:56:54.247Z,37.90
2017-08-23T13:59:22.279Z,37.50
2017-08-23T14:01:49.783Z,38.90
2017-08-23T14:04:17.329Z,39.30
2017-08-23T14:06:44.833Z,39.90
2017-08-23T14:09:12.511Z,37.40
2017-08-23T14:11:41.697Z,38.30
2017-08-23T14:14:09.214Z,38.20
2017-08-23T14:16:37.435Z,38.20
2017-08-23T14:19:04.948Z,43.60
2017-08-23T14:21:32.448Z,38.90
2017-08-23T14:24:00.681Z,43.30
2017-08-23T14:26:28.207Z,43.20
2017-08-23T14:28:55.718Z,40.60
2017-08-23T14:31:23.260Z,38.60
2017-08-23T14:33:50.763Z,38.30
2017-08-23T14:36:18.273Z,42.70
2017-08-23T14:38:47.882Z,39.50
2017-08-23T14:41:15.391Z,39.20
2017-08-23T14:43:42.959Z,40.40
2017-08-23T14:46:10.510Z,40.80
2017-08-23T14:48:39.592Z,41.30
2017-08-23T14:51:07.135Z,42.00
2017-08-23T14:53:34.643Z,41.80
2017-08-23T14:56:06.609Z,41.50
2017-08-23T14:58:34.114Z,40.80
2017-08-23T15:01:01.622Z,40.30
2017-08-23T15:03:29.152Z,41.70
2017-08-23T15:05:56.704Z,43.60
2017-08-23T15:08:24.234Z,41.20
2017-08-23T15:10:55.495Z,40.30
2017-08-23T15:13:23.276Z,41.30
2017-08-23T15:15:50.787Z,42.30
2017-08-23T15:18:18.354Z,43.40
2017-08-23T15:20:45.851Z,41.90
2017-08-23T15:23:13.361Z,40.00
2017-08-23T15:25:50.512Z,40.90
2017-08-23T15:28:18.568Z,41.10
2017-08-23T15:30:46.084Z,41.00
2017-08-23T15:33:13.589Z,41.20
2017-08-23T15:35:41.120Z,41.10
2017-08-23T15:38:08.632Z,42.00
2017-08-23T15:40:37.037Z,42.50
2017-08-23T15:43:05.351Z,44.70
2017-08-23T15:45:32.863Z,44.80
2017-08-23T15:48:00.369Z,43.40
2017-08-23T15:50:27.929Z,42.40
2017-08-23T15:52:56.369Z,41.50
2017-08-23T15:55:25.460Z,42.80
2017-08-23T15:57:53.893Z,44.80
2017-08-23T16:00:21.650Z,44.80
2017-08-23T16:02:49.162Z,41.70
2017-08-23T16:05:16.668Z,46.90
2017-08-23T16:07:44.176Z,48.50
2017-08-23T16:10:11.680Z,46.70
2017-08-23T16:12:39.180Z,44.10
2017-08-23T16:15:06.856Z,45.00
2017-08-23T16:17:34.856Z,44.00
2017-08-23T16:20:02.463Z,45.70
2017-08-23T16:22:29.980Z,45.00
2017-08-23T16:25:01.995Z,45.60
2017-08-23T16:27:29.993Z,46.90
2017-08-23T16:29:57.503Z,47.50
2017-08-23T16:32:25.062Z,48.90
2017-08-23T16:34:53.018Z,50.50
2017-08-23T16:37:20.520Z,50.80
2017-08-23T16:39:48.019Z,50.10
2017-08-23T16:42:20.412Z,49.70
2017-08-23T16:44:48.344Z,49.70
2017-08-23T16:47:15.854Z,49.90
2017-08-23T16:49:44.311Z,50.80
2017-08-23T16:52:12.580Z,51.40
2017-08-23T16:54:40.912Z,51.40
2017-08-23T16:57:08.709Z,51.60
2017-08-23T16:59:36.234Z,50.50
2017-08-23T17:02:03.980Z,52.10
2017-08-23T17:04:31.471Z,51.70
2017-08-23T17:06:58.976Z,51.00
2017-08-23T17:09:26.472Z,53.50
2017-08-23T17:11:53.987Z,49.50
2017-08-23T17:14:23.195Z,52.00
2017-08-23T17:16:51.476Z,53.00
2017-08-23T17:19:18.995Z,53.10
2017-08-23T17:21:46.983Z,54.40
2017-08-23T17:24:15.251Z,55.10
2017-08-23T17:26:47.151Z,55.10
2017-08-23T17:29:14.703Z,55.40
2017-08-23T17:31:42.983Z,54.30
2017-08-23T17:34:10.702Z,54.20
2017-08-23T17:36:38.204Z,56.40
2017-08-23T17:39:05.720Z,55.80
2017-08-23T17:41:33.472Z,59.30
2017-08-23T17:44:02.103Z,59.80
2017-08-23T17:46:29.605Z,59.80
2017-08-23T17:48:57.104Z,58.60
2017-08-23T17:51:24.613Z,61.20
2017-08-23T17:53:52.143Z,60.50
2017-08-23T17:56:20.232Z,58.20
2017-08-23T17:58:48.829Z,59.50
2017-08-23T18:01:16.735Z,60.70
2017-08-23T18:03:45.202Z,59.20
2017-08-23T18:06:12.699Z,61.00
2017-08-23T18:08:41.880Z,61.60
2017-08-23T18:11:10.390Z,64.20
2017-08-23T18:13:38.375Z,64.20
2017-08-23T18:16:05.878Z,63.40
2017-08-23T18:18:33.908Z,64.70
2017-08-23T18:21:01.453Z,63.60
2017-08-23T18:23:29.120Z,63.10
2017-08-23T18:25:56.906Z,64.00
2017-08-23T18:28:24.944Z,64.80
2017-08-23T18:30:53.357Z,68.60
2017-08-23T18:33:21.815Z,69.10
2017-08-23T18:35:50.083Z,71.40
2017-08-23T18:38:18.113Z,71.40
2017-08-23T18:40:46.343Z,72.20
2017-08-23T18:43:13.852Z,71.60
2017-08-23T18:45:42.459Z,72.50
2017-08-23T18:48:10.160Z,73.40
2017-08-23T18:50:38.972Z,73.50
2017-08-23T18:53:07.417Z,69.70
2017-08-23T18:55:34.920Z,71.70
2017-08-23T18:58:13.652Z,68.90
2017-08-23T19:00:41.159Z,69.70
2017-08-23T19:03:09.467Z,73.00
2017-08-23T19:05:37.025Z,72.90
2017-08-23T19:08:04.581Z,75.10
2017-08-23T19:10:32.115Z,74.80
2017-08-23T19:13:02.536Z,75.80
2017-08-23T19:15:30.048Z,76.80
2017-08-23T19:17:58.457Z,75.60
2017-08-23T19:20:26.494Z,77.40
2017-08-23T19:22:54.008Z,78.10
2017-08-23T19:25:21.512Z,78.60
2017-08-23T19:27:49.120Z,79.10
2017-08-23T19:30:17.200Z,78.80
2017-08-23T19:32:46.237Z,79.60
2017-08-23T19:35:13.748Z,79.60
2017-08-23T19:37:41.675Z,80.50
2017-08-23T19:40:09.201Z,79.20
2017-08-23T19:42:36.713Z,79.00
2017-08-23T19:45:08.010Z,80.90
2017-08-23T19:47:36.451Z,80.40
2017-08-23T19:50:03.993Z,80.10
2017-08-23T19:52:31.749Z,80.20
2017-08-23T19:54:59.295Z,80.90
2017-08-23T19:57:26.803Z,80.90
2017-08-23T19:59:54.330Z,81.80
2017-08-23T20:02:21.852Z,81.50
2017-08-23T20:04:51.144Z,82.90
2017-08-23T20:07:19.088Z,82.80
2017-08-23T20:09:46.596Z,83.40
2017-08-23T20:12:15.677Z,83.70
2017-08-23T20:14:43.188Z,83.60
2017-08-23T20:17:10.693Z,83.90
2017-08-23T20:19:38.223Z,84.00
2017-08-23T20:22:05.768Z,83.70
2017-08-23T20:24:33.301Z,84.40
2017-08-23T20:27:01.329Z,84.30
2017-08-23T20:29:30.539Z,84.10
2017-08-23T20:31:59.248Z,84.90
2017-08-23T20:34:26.814Z,85.20
2017-08-23T20:36:54.371Z,85.70
2017-08-23T20:39:24.555Z,86.00
2017-08-23T20:41:52.212Z,85.90
2017-08-23T20:44:21.256Z,86.00
2017-08-23T20:46:48.772Z,86.00
2017-08-23T20:49:17.056Z,86.20
2017-08-23T20:51:44.608Z,86.20
2017-08-23T20:54:12.166Z,86.50
2017-08-23T20:56:39.695Z,87.00
2017-08-23T20:59:07.603Z,86.70
2017-08-23T21:01:35.179Z,87.10
2017-08-23T21:04:02.722Z,87.20
2017-08-23T21:06:30.271Z,87.70
2017-08-23T21:08:57.807Z,87.60
2017-08-23T21:11:25.385Z,87.80
2017-08-23T21:13:52.898Z,87.70
2017-08-23T21:16:21.013Z,87.90
2017-08-23T21:18:48.563Z,87.90
2017-08-23T21:21:16.460Z,88.10
2017-08-23T21:23:43.971Z,88.50
2017-08-23T21:26:11.475Z,88.40
2017-08-23T21:28:38.989Z,88.40
2017-08-23T21:31:10.415Z,88.40
2017-08-23T21:33:37.928Z,88.10
2017-08-23T21:36:05.445Z,88.10
2017-08-23T21:38:32.992Z,88.20
2017-08-23T21:41:02.264Z,86.70
2017-08-23T21:43:29.775Z,86.60
2017-08-23T21:45:57.311Z,86.50
2017-08-23T21:48:25.607Z,87.30
2017-08-23T21:50:53.116Z,87.30
2017-08-23T21:53:20.636Z,87.40
2017-08-23T21:55:49.700Z,87.90
2017-08-23T21:58:17.455Z,87.90
2017-08-23T22:00:44.986Z,88.20
2017-08-23T22:03:13.337Z,88.30
2017-08-23T22:05:40.865Z,88.10
2017-08-23T22:08:08.369Z,87.20
2017-08-23T22:13:09.699Z,87.30
2017-08-23T22:15:37.217Z,87.00
2017-08-23T22:18:04.928Z,86.90
2017-08-23T22:20:33.200Z,87.50
2017-08-23T22:23:00.735Z,87.60
2017-08-23T22:25:28.807Z,88.20
2017-08-23T22:27:56.355Z,88.60
2017-08-23T22:30:23.863Z,89.20
2017-08-23T22:32:52.159Z,89.50
2017-08-23T22:35:19.714Z,89.50
2017-08-23T22:37:47.219Z,89.20
2017-08-23T22:40:14.801Z,88.70
2017-08-23T22:42:42.308Z,89.10
2017-08-23T22:45:09.831Z,89.50
2017-08-23T22:47:37.348Z,89.20
2017-08-23T22:50:04.866Z,89.90
2017-08-23T22:52:32.393Z,89.80
2017-08-23T22:55:02.659Z,90.00
2017-08-23T22:57:31.356Z,90.00
2017-08-23T22:59:58.887Z,90.00
2017-08-23T23:02:26.425Z,90.00
2017-08-23T23:04:55.692Z,90.20
2017-08-23T23:07:23.202Z,90.20
2017-08-23T23:09:50.707Z,90.00
2017-08-23T23:12:18.260Z,90.20
2017-08-23T23:14:45.777Z,90.00
2017-08-23T23:17:14.968Z,89.70
2017-08-23T23:19:42.472Z,89.70
2017-08-23T23:22:09.991Z,90.10
2017-08-23T23:24:37.506Z,88.60
2017-08-23T23:27:05.243Z,89.10
2017-08-23T23:29:33.670Z,89.60
2017-08-23T23:32:01.171Z,88.10
2017-08-23T23:34:28.695Z,86.80
2017-08-23T23:36:56.218Z,87.50
2017-08-23T23:39:23.733Z,87.60
2017-08-23T23:41:51.292Z,88.30
2017-08-23T23:44:18.795Z,88.70
2017-08-23T23:46:47.263Z,88.80
2017-08-23T23:49:14.785Z,88.70
2017-08-23T23:51:43.050Z,89.20
2017-08-23T23:54:11.491Z,89.00
2017-08-23T23:56:38.999Z,89.50
2017-08-23T23:59:07.361Z,89.50
